createdAt,value
2018-09-14T00:04:16.546Z,14.00
2018-09-14T00:09:20.146Z,13.90
2018-09-14T00:14:23.698Z,13.80
2018-09-14T00:19:27.308Z,14.10
2018-09-14T00:24:30.864Z,14.10
2018-09-14T00:29:34.568Z,14.10
2018-09-14T00:34:38.173Z,14.00
2018-09-14T00:39:42.749Z,14.00
2018-09-14T00:44:46.311Z,14.20
2018-09-14T00:49:49.985Z,14.00
2018-09-14T00:54:53.556Z,14.00
2018-09-14T00:59:57.094Z,14.10
2018-09-14T01:05:01.749Z,14.00
2018-09-14T01:10:06.641Z,14.00
2018-09-14T01:15:10.355Z,14.10
2018-09-14T01:20:13.969Z,14.20
2018-09-14T01:25:18.414Z,14.50
2018-09-14T01:30:22.755Z,14.70
2018-09-14T01:35:31.519Z,14.60
2018-09-14T01:40:35.070Z,14.10
2018-09-14T01:45:38.663Z,14.00
2018-09-14T01:50:42.235Z,14.10
2018-09-14T01:55:45.874Z,14.70
2018-09-14T02:00:49.409Z,14.80
2018-09-14T02:05:52.927Z,14.60
2018-09-14T02:10:56.615Z,14.40
2018-09-14T02:16:00.259Z,14.10
2018-09-14T02:21:03.855Z,14.10
2018-09-14T02:26:07.505Z,14.00
2018-09-14T02:31:11.091Z,14.00
2018-09-14T02:36:14.696Z,14.20
2018-09-14T02:41:18.303Z,14.20
2018-09-14T02:46:22.030Z,14.00
2018-09-14T02:51:25.666Z,14.00
2018-09-14T02:56:30.363Z,14.00
2018-09-14T03:01:33.960Z,14.00
2018-09-14T03:06:37.506Z,14.00
2018-09-14T03:11:41.076Z,14.40
2018-09-14T03:16:44.626Z,14.30
2018-09-14T03:21:48.275Z,14.20
2018-09-14T03:26:51.943Z,14.30
2018-09-14T03:31:55.577Z,14.50
2018-09-14T03:36:59.294Z,14.90
2018-09-14T03:42:03.308Z,15.10
2018-09-14T03:47:06.878Z,15.00
2018-09-14T03:52:10.542Z,14.70
2018-09-14T03:57:14.156Z,14.60
2018-09-14T04:02:17.755Z,14.80
2018-09-14T04:07:23.417Z,14.80
2018-09-14T04:12:31.697Z,14.80
2018-09-14T04:17:35.255Z,14.50
2018-09-14T04:22:38.846Z,14.20
2018-09-14T04:27:42.438Z,14.20
2018-09-14T04:32:46.160Z,14.00
2018-09-14T04:37:49.951Z,13.80
2018-09-14T04:42:53.545Z,13.80
2018-09-14T04:47:57.240Z,13.90
2018-09-14T04:53:00.969Z,13.80
2018-09-14T04:58:04.652Z,13.80
2018-09-14T05:03:08.688Z,13.80
2018-09-14T05:08:13.299Z,13.90
2018-09-14T05:13:17.048Z,14.10
2018-09-14T05:18:22.759Z,14.20
2018-09-14T05:23:26.318Z,14.30
2018-09-14T05:28:30.045Z,14.30
2018-09-14T05:33:33.694Z,14.10
2018-09-14T05:38:37.392Z,14.20
2018-09-14T05:43:40.954Z,14.30
2018-09-14T05:48:44.479Z,14.40
2018-09-14T05:53:48.014Z,14.80
2018-09-14T05:58:51.571Z,15.20
2018-09-14T06:03:55.450Z,14.80
2018-09-14T06:08:59.821Z,14.50
2018-09-14T06:14:08.974Z,14.50
2018-09-14T06:19:13.590Z,14.70
2018-09-14T06:24:17.159Z,14.60
2018-09-14T06:29:21.115Z,14.40
2018-09-14T06:34:26.828Z,14.60
2018-09-14T06:39:30.386Z,14.80
2018-09-14T06:44:35.014Z,14.80
2018-09-14T06:49:38.616Z,14.90
2018-09-14T06:54:42.187Z,15.10
2018-09-14T06:59:45.801Z,15.70
2018-09-14T07:04:49.396Z,15.60
2018-09-14T07:10:03.453Z,15.50
2018-09-14T07:15:07.014Z,15.40
2018-09-14T07:20:12.205Z,15.60
2018-09-14T07:25:19.274Z,15.50
2018-09-14T07:30:23.046Z,15.50
2018-09-14T07:35:28.219Z,15.60
2018-09-14T07:40:33.139Z,15.80
2018-09-14T07:45:36.768Z,16.00
2018-09-14T07:50:40.366Z,16.20
2018-09-14T07:55:44.013Z,16.50
2018-09-14T08:00:48.567Z,17.60
2018-09-14T08:05:53.149Z,17.40
2018-09-14T08:10:57.814Z,18.00
2018-09-14T08:16:07.470Z,18.90
2018-09-14T08:21:11.292Z,17.90
2018-09-14T08:26:17.590Z,18.90
2018-09-14T08:31:21.238Z,18.80
2018-09-14T08:36:25.039Z,18.80
2018-09-14T08:41:40.064Z,19.80
2018-09-14T08:46:43.744Z,19.20
2018-09-14T08:51:52.594Z,19.60
2018-09-14T08:56:56.125Z,19.20
2018-09-14T09:01:59.710Z,20.40
2018-09-14T09:07:04.308Z,21.10
2018-09-14T09:12:08.899Z,21.10
2018-09-14T09:17:12.499Z,23.30
2018-09-14T09:22:16.162Z,25.00
2018-09-14T09:27:19.836Z,25.50
2018-09-14T09:32:23.417Z,24.90
2018-09-14T09:37:28.202Z,25.70
2018-09-14T09:42:31.831Z,26.70
2018-09-14T09:47:35.496Z,24.10
2018-09-14T09:52:39.169Z,24.80
2018-09-14T09:57:43.603Z,23.10
2018-09-14T10:02:52.566Z,22.50
2018-09-14T10:07:56.270Z,22.20
2018-09-14T10:12:59.952Z,21.60
2018-09-14T10:18:03.934Z,21.50
2018-09-14T10:23:09.340Z,21.90
2018-09-14T10:28:14.901Z,21.70
2018-09-14T10:33:18.525Z,21.30
2018-09-14T10:38:25.122Z,21.00
2018-09-14T10:43:30.842Z,22.10
2018-09-14T10:48:34.560Z,22.10
2018-09-14T10:53:38.247Z,22.00
2018-09-14T10:58:43.181Z,21.80
2018-09-14T11:03:46.839Z,21.70
2018-09-14T11:08:54.071Z,20.90
2018-09-14T11:13:57.626Z,20.80
2018-09-14T11:19:09.419Z,20.90
2018-09-14T11:24:13.022Z,20.80
2018-09-14T11:29:16.625Z,20.80
2018-09-14T11:34:20.235Z,20.70
2018-09-14T11:39:23.924Z,21.00
2018-09-14T11:44:29.627Z,20.80
2018-09-14T11:49:36.890Z,21.10
2018-09-14T11:54:40.347Z,20.90
2018-09-14T11:59:43.985Z,21.00
2018-09-14T12:04:47.630Z,21.10
2018-09-14T12:09:51.205Z,21.20
2018-09-14T12:14:54.842Z,21.30
2018-09-14T12:19:58.478Z,21.50
2018-09-14T12:25:01.991Z,21.40
2018-09-14T12:30:05.683Z,21.40
2018-09-14T12:35:09.223Z,21.40
2018-09-14T12:40:12.839Z,21.20
2018-09-14T12:45:16.443Z,20.90
2018-09-14T12:50:20.850Z,21.10
2018-09-14T12:55:24.370Z,21.10
2018-09-14T13:00:27.890Z,21.00
2018-09-14T13:05:31.445Z,21.20
2018-09-14T13:10:35.083Z,21.10
2018-09-14T13:15:38.618Z,21.70
2018-09-14T13:20:42.222Z,21.10
2018-09-14T13:25:45.750Z,21.10
2018-09-14T13:30:49.392Z,21.00
2018-09-14T13:35:52.885Z,21.20
2018-09-14T13:40:56.558Z,21.20
2018-09-14T13:46:00.227Z,21.10
2018-09-14T13:51:04.353Z,20.90
2018-09-14T13:56:12.092Z,21.00
2018-09-14T14:01:15.738Z,21.40
2018-09-14T14:06:19.387Z,21.30
2018-09-14T14:11:23.108Z,21.00
2018-09-14T14:16:26.762Z,21.10
2018-09-14T14:21:30.650Z,21.10
2018-09-14T14:26:35.194Z,21.00
2018-09-14T14:31:38.801Z,21.00
2018-09-14T14:36:42.341Z,20.90
2018-09-14T14:41:46.236Z,20.90
2018-09-14T14:46:49.885Z,20.90
2018-09-14T14:51:54.626Z,20.90
2018-09-14T14:56:58.536Z,20.90
2018-09-14T15:02:02.303Z,20.90
2018-09-14T15:07:07.287Z,20.90
2018-09-14T15:12:11.017Z,20.80
2018-09-14T15:17:14.690Z,20.80
2018-09-14T15:22:18.440Z,20.90
2018-09-14T15:27:22.670Z,20.60
2018-09-14T15:32:28.290Z,20.30
2018-09-14T15:37:32.018Z,20.10
2018-09-14T15:42:35.884Z,20.00
2018-09-14T15:47:44.385Z,20.00
2018-09-14T15:52:48.035Z,20.10
2018-09-14T15:57:51.759Z,20.00
2018-09-14T16:02:56.374Z,20.00
2018-09-14T16:08:00.018Z,20.20
2018-09-14T16:13:03.729Z,20.10
2018-09-14T16:18:10.723Z,20.10
2018-09-14T16:23:14.482Z,19.90
2018-09-14T16:28:18.110Z,19.80
2018-09-14T16:33:22.594Z,19.80
2018-09-14T16:38:28.652Z,19.80
2018-09-14T16:43:32.419Z,19.80
2018-09-14T16:48:36.035Z,19.80
2018-09-14T16:53:39.630Z,19.70
2018-09-14T16:58:43.283Z,19.60
2018-09-14T17:03:46.889Z,19.50
2018-09-14T17:09:09.259Z,19.50
2018-09-14T17:14:12.872Z,19.40
2018-09-14T17:19:20.110Z,19.20
2018-09-14T17:24:23.719Z,19.20
2018-09-14T17:29:27.432Z,19.10
2018-09-14T17:34:31.059Z,19.10
2018-09-14T17:39:40.285Z,19.20
2018-09-14T17:44:44.103Z,19.10
2018-09-14T17:49:47.866Z,18.90
2018-09-14T17:54:51.619Z,18.60
2018-09-14T17:59:59.804Z,18.40
2018-09-14T18:05:03.582Z,18.20
2018-09-14T18:10:07.521Z,18.30
2018-09-14T18:15:11.067Z,18.50
2018-09-14T18:20:19.010Z,18.20
2018-09-14T18:25:22.653Z,18.20
2018-09-14T18:30:30.770Z,18.00
2018-09-14T18:35:34.370Z,17.50
2018-09-14T18:40:41.369Z,17.20
2018-09-14T18:45:45.162Z,16.90
2018-09-14T18:50:50.524Z,16.80
2018-09-14T18:55:54.463Z,16.80
2018-09-14T19:00:58.202Z,16.70
2018-09-14T19:06:02.836Z,16.40
2018-09-14T19:11:06.541Z,16.40
2018-09-14T19:16:11.703Z,16.40
2018-09-14T19:21:16.397Z,16.50
2018-09-14T19:26:20.192Z,16.80
2018-09-14T19:31:24.761Z,16.90
2018-09-14T19:36:28.806Z,17.10
2018-09-14T19:41:37.997Z,16.40
2018-09-14T19:46:41.995Z,16.00
2018-09-14T19:51:46.690Z,15.80
2018-09-14T19:56:50.455Z,15.70
2018-09-14T20:01:56.751Z,15.50
2018-09-14T20:07:00.454Z,15.40
2018-09-14T20:12:04.303Z,15.20
2018-09-14T20:17:08.074Z,15.00
2018-09-14T20:22:11.761Z,15.20
2018-09-14T20:27:16.418Z,15.50
2018-09-14T20:32:20.063Z,15.20
2018-09-14T20:37:24.835Z,15.20
2018-09-14T20:42:28.362Z,15.10
2018-09-14T20:47:35.963Z,14.90
2018-09-14T20:52:39.659Z,14.70
2018-09-14T20:57:44.510Z,14.80
2018-09-14T21:02:50.269Z,15.00
2018-09-14T21:07:54.354Z,15.20
2018-09-14T21:12:59.192Z,15.40
2018-09-14T21:18:02.962Z,15.20
2018-09-14T21:23:06.714Z,15.00
2018-09-14T21:28:10.427Z,14.60
2018-09-14T21:33:14.138Z,14.60
2018-09-14T21:38:17.791Z,14.80
2018-09-14T21:43:21.470Z,15.00
2018-09-14T21:48:25.350Z,15.00
2018-09-14T21:53:29.074Z,15.10
2018-09-14T21:58:34.698Z,15.20
2018-09-14T22:03:38.758Z,15.20
2018-09-14T22:08:43.463Z,15.10
2018-09-14T22:13:48.514Z,15.10
2018-09-14T22:18:52.165Z,15.10
2018-09-14T22:23:55.756Z,15.10
2018-09-14T22:28:59.319Z,15.10
2018-09-14T22:34:02.882Z,15.10
2018-09-14T22:39:08.782Z,14.90
2018-09-14T22:44:12.377Z,14.70
2018-09-14T22:49:17.099Z,14.80
2018-09-14T22:54:24.748Z,14.60
2018-09-14T22:59:29.416Z,14.50
2018-09-14T23:04:33.002Z,14.80
2018-09-14T23:09:36.578Z,14.50
2018-09-14T23:14:43.998Z,14.40
2018-09-14T23:19:48.562Z,14.40
2018-09-14T23:24:52.177Z,14.40
2018-09-14T23:29:56.154Z,14.20
2018-09-14T23:35:02.884Z,14.00
2018-09-14T23:40:07.174Z,13.90
2018-09-14T23:45:10.934Z,13.90
2018-09-14T23:50:14.692Z,13.80
2018-09-14T23:55:19.354Z,13.50
